sensor_id;sensor_type;location;lat;lon;timestamp;temperature;humidity
13880;DHT22;7010;48.200;16.332;2023-04-07T00:01:07;6.50;73.30
13880;DHT22;7010;48.200;16.332;2023-04-07T00:03:36;6.50;74.00
13880;DHT22;7010;48.200;16.332;2023-04-07T00:06:07;6.50;72.60
13880;DHT22;7010;48.200;16.332;2023-04-07T00:08:35;6.40;73.00
13880;DHT22;7010;48.200;16.332;2023-04-07T00:11:04;6.40;73.10
13880;DHT22;7010;48.200;16.332;2023-04-07T00:13:34;6.40;73.30
13880;DHT22;7010;48.200;16.332;2023-04-07T00:16:02;6.40;73.20
13880;DHT22;7010;48.200;16.332;2023-04-07T00:18:34;6.40;73.70
13880;DHT22;7010;48.200;16.332;2023-04-07T00:21:02;6.40;74.40
13880;DHT22;7010;48.200;16.332;2023-04-07T00:23:30;6.40;73.70
13880;DHT22;7010;48.200;16.332;2023-04-07T00:25:59;6.40;73.80
13880;DHT22;7010;48.200;16.332;2023-04-07T00:28:27;6.40;73.40
13880;DHT22;7010;48.200;16.332;2023-04-07T00:30:57;6.40;73.70
13880;DHT22;7010;48.200;16.332;2023-04-07T00:33:26;6.40;74.40
13880;DHT22;7010;48.200;16.332;2023-04-07T00:35:55;6.40;73.60
13880;DHT22;7010;48.200;16.332;2023-04-07T00:38:24;6.40;75.00
13880;DHT22;7010;48.200;16.332;2023-04-07T00:40:56;6.40;74.40
13880;DHT22;7010;48.200;16.332;2023-04-07T00:43:25;6.30;73.80
13880;DHT22;7010;48.200;16.332;2023-04-07T00:45:54;6.40;74.40
13880;DHT22;7010;48.200;16.332;2023-04-07T00:48:24;6.30;74.80
13880;DHT22;7010;48.200;16.332;2023-04-07T00:50:52;6.30;74.20
13880;DHT22;7010;48.200;16.332;2023-04-07T00:53:21;6.30;73.90
13880;DHT22;7010;48.200;16.332;2023-04-07T00:55:49;6.20;73.70
13880;DHT22;7010;48.200;16.332;2023-04-07T00:58:18;6.20;74.00
13880;DHT22;7010;48.200;16.332;2023-04-07T01:00:50;6.20;74.00
13880;DHT22;7010;48.200;16.332;2023-04-07T01:03:24;6.20;75.80
13880;DHT22;7010;48.200;16.332;2023-04-07T01:05:59;6.20;74.30
13880;DHT22;7010;48.200;16.332;2023-04-07T01:11:19;6.20;75.70
13880;DHT22;7010;48.200;16.332;2023-04-07T01:13:51;6.20;74.80
13880;DHT22;7010;48.200;16.332;2023-04-07T01:16:23;6.20;74.60
13880;DHT22;7010;48.200;16.332;2023-04-07T01:18:59;6.20;75.10
13880;DHT22;7010;48.200;16.332;2023-04-07T01:21:32;6.20;74.60
13880;DHT22;7010;48.200;16.332;2023-04-07T01:24:26;6.20;74.00
13880;DHT22;7010;48.200;16.332;2023-04-07T01:27:12;6.20;74.10
13880;DHT22;7010;48.200;16.332;2023-04-07T01:29:44;6.20;74.00
13880;DHT22;7010;48.200;16.332;2023-04-07T01:32:14;6.10;74.00
13880;DHT22;7010;48.200;16.332;2023-04-07T01:34:48;6.10;75.10
13880;DHT22;7010;48.200;16.332;2023-04-07T01:37:16;6.10;74.60
13880;DHT22;7010;48.200;16.332;2023-04-07T01:39:45;6.10;75.40
13880;DHT22;7010;48.200;16.332;2023-04-07T01:42:14;6.10;74.60
13880;DHT22;7010;48.200;16.332;2023-04-07T01:44:47;6.10;75.00
13880;DHT22;7010;48.200;16.332;2023-04-07T01:47:16;6.10;74.60
13880;DHT22;7010;48.200;16.332;2023-04-07T01:49:46;6.10;75.80
13880;DHT22;7010;48.200;16.332;2023-04-07T01:52:16;6.10;75.20
13880;DHT22;7010;48.200;16.332;2023-04-07T01:54:44;6.00;75.00
13880;DHT22;7010;48.200;16.332;2023-04-07T01:57:13;6.00;75.50
13880;DHT22;7010;48.200;16.332;2023-04-07T01:59:41;6.00;75.20
13880;DHT22;7010;48.200;16.332;2023-04-07T02:02:11;6.00;75.20
13880;DHT22;7010;48.200;16.332;2023-04-07T02:04:53;6.00;75.30
13880;DHT22;7010;48.200;16.332;2023-04-07T02:07:28;6.00;76.00
13880;DHT22;7010;48.200;16.332;2023-04-07T02:10:01;6.00;76.10
13880;DHT22;7010;48.200;16.332;2023-04-07T02:12:31;6.00;75.80
13880;DHT22;7010;48.200;16.332;2023-04-07T02:15:03;6.00;75.40
13880;DHT22;7010;48.200;16.332;2023-04-07T02:17:37;5.90;75.50
13880;DHT22;7010;48.200;16.332;2023-04-07T02:20:08;6.00;76.00
13880;DHT22;7010;48.200;16.332;2023-04-07T02:22:37;6.00;77.70
13880;DHT22;7010;48.200;16.332;2023-04-07T02:25:23;6.00;76.60
13880;DHT22;7010;48.200;16.332;2023-04-07T02:27:52;5.90;75.80
13880;DHT22;7010;48.200;16.332;2023-04-07T02:30:21;5.90;77.80
13880;DHT22;7010;48.200;16.332;2023-04-07T02:32:51;6.00;76.90
13880;DHT22;7010;48.200;16.332;2023-04-07T02:35:20;6.00;76.90
13880;DHT22;7010;48.200;16.332;2023-04-07T02:37:48;5.90;76.50
13880;DHT22;7010;48.200;16.332;2023-04-07T02:40:17;5.90;77.30
13880;DHT22;7010;48.200;16.332;2023-04-07T02:42:45;6.00;76.40
13880;DHT22;7010;48.200;16.332;2023-04-07T02:45:14;5.90;76.40
13880;DHT22;7010;48.200;16.332;2023-04-07T02:47:42;5.90;77.10
13880;DHT22;7010;48.200;16.332;2023-04-07T02:50:13;5.90;78.00
13880;DHT22;7010;48.200;16.332;2023-04-07T02:52:41;5.90;77.20
13880;DHT22;7010;48.200;16.332;2023-04-07T02:55:09;5.90;77.20
13880;DHT22;7010;48.200;16.332;2023-04-07T02:57:37;5.90;76.80
13880;DHT22;7010;48.200;16.332;2023-04-07T03:00:07;5.80;76.50
13880;DHT22;7010;48.200;16.332;2023-04-07T03:02:36;5.80;76.90
13880;DHT22;7010;48.200;16.332;2023-04-07T03:05:05;5.80;77.40
13880;DHT22;7010;48.200;16.332;2023-04-07T03:07:35;5.80;77.20
13880;DHT22;7010;48.200;16.332;2023-04-07T03:10:04;5.80;78.50
13880;DHT22;7010;48.200;16.332;2023-04-07T03:12:32;5.70;76.90
13880;DHT22;7010;48.200;16.332;2023-04-07T03:15:01;5.70;78.40
13880;DHT22;7010;48.200;16.332;2023-04-07T03:17:30;5.70;77.80
13880;DHT22;7010;48.200;16.332;2023-04-07T03:19:58;5.60;77.70
13880;DHT22;7010;48.200;16.332;2023-04-07T03:22:26;5.60;77.40
13880;DHT22;7010;48.200;16.332;2023-04-07T03:24:56;5.60;77.20
13880;DHT22;7010;48.200;16.332;2023-04-07T03:27:25;5.50;77.80
13880;DHT22;7010;48.200;16.332;2023-04-07T03:29:53;5.50;78.20
13880;DHT22;7010;48.200;16.332;2023-04-07T03:32:22;5.50;78.40
13880;DHT22;7010;48.200;16.332;2023-04-07T03:34:50;5.50;78.70
13880;DHT22;7010;48.200;16.332;2023-04-07T03:37:18;5.50;78.50
13880;DHT22;7010;48.200;16.332;2023-04-07T03:39:47;5.40;78.30
13880;DHT22;7010;48.200;16.332;2023-04-07T03:42:19;5.40;78.60
13880;DHT22;7010;48.200;16.332;2023-04-07T03:44:47;5.40;78.40
13880;DHT22;7010;48.200;16.332;2023-04-07T03:47:15;5.30;78.80
13880;DHT22;7010;48.200;16.332;2023-04-07T03:49:44;5.30;78.80
13880;DHT22;7010;48.200;16.332;2023-04-07T03:52:12;5.30;79.50
13880;DHT22;7010;48.200;16.332;2023-04-07T03:54:41;5.30;79.50
13880;DHT22;7010;48.200;16.332;2023-04-07T03:57:09;5.30;79.50
13880;DHT22;7010;48.200;16.332;2023-04-07T03:59:39;5.30;80.00
13880;DHT22;7010;48.200;16.332;2023-04-07T04:02:08;5.30;79.80
13880;DHT22;7010;48.200;16.332;2023-04-07T04:04:37;5.30;79.40
13880;DHT22;7010;48.200;16.332;2023-04-07T04:07:05;5.30;81.20
13880;DHT22;7010;48.200;16.332;2023-04-07T04:09:33;5.30;81.20
13880;DHT22;7010;48.200;16.332;2023-04-07T04:12:02;5.30;80.50
13880;DHT22;7010;48.200;16.332;2023-04-07T04:14:30;5.30;80.50
13880;DHT22;7010;48.200;16.332;2023-04-07T04:17:00;5.30;80.50
13880;DHT22;7010;48.200;16.332;2023-04-07T04:19:31;5.40;79.70
13880;DHT22;7010;48.200;16.332;2023-04-07T04:21:59;5.40;79.80
13880;DHT22;7010;48.200;16.332;2023-04-07T04:24:28;5.40;79.30
13880;DHT22;7010;48.200;16.332;2023-04-07T04:26:56;5.50;81.00
13880;DHT22;7010;48.200;16.332;2023-04-07T04:29:24;5.40;80.60
13880;DHT22;7010;48.200;16.332;2023-04-07T04:31:53;5.40;81.00
13880;DHT22;7010;48.200;16.332;2023-04-07T04:34:23;5.50;80.30
13880;DHT22;7010;48.200;16.332;2023-04-07T04:36:51;5.50;80.40
13880;DHT22;7010;48.200;16.332;2023-04-07T04:39:19;5.50;83.10
13880;DHT22;7010;48.200;16.332;2023-04-07T04:41:47;5.50;80.70
13880;DHT22;7010;48.200;16.332;2023-04-07T04:44:16;5.50;80.70
13880;DHT22;7010;48.200;16.332;2023-04-07T04:46:44;5.50;80.80
13880;DHT22;7010;48.200;16.332;2023-04-07T04:49:13;5.60;80.10
13880;DHT22;7010;48.200;16.332;2023-04-07T04:51:43;5.60;81.60
13880;DHT22;7010;48.200;16.332;2023-04-07T04:54:11;5.60;80.50
13880;DHT22;7010;48.200;16.332;2023-04-07T04:56:39;5.60;80.10
13880;DHT22;7010;48.200;16.332;2023-04-07T04:59:08;5.60;81.40
13880;DHT22;7010;48.200;16.332;2023-04-07T05:01:37;5.70;80.10
13880;DHT22;7010;48.200;16.332;2023-04-07T05:04:05;5.70;80.30
13880;DHT22;7010;48.200;16.332;2023-04-07T05:06:35;5.70;81.60
13880;DHT22;7010;48.200;16.332;2023-04-07T05:09:05;5.70;79.80
13880;DHT22;7010;48.200;16.332;2023-04-07T05:11:33;5.80;80.40
13880;DHT22;7010;48.200;16.332;2023-04-07T05:14:02;5.80;82.10
13880;DHT22;7010;48.200;16.332;2023-04-07T05:16:30;5.90;81.80
13880;DHT22;7010;48.200;16.332;2023-04-07T05:18:58;5.90;80.50
13880;DHT22;7010;48.200;16.332;2023-04-07T05:21:27;5.90;79.70
13880;DHT22;7010;48.200;16.332;2023-04-07T05:23:55;5.90;81.00
13880;DHT22;7010;48.200;16.332;2023-04-07T05:26:25;6.00;81.10
13880;DHT22;7010;48.200;16.332;2023-04-07T05:28:53;6.00;80.50
13880;DHT22;7010;48.200;16.332;2023-04-07T05:31:21;6.00;79.20
13880;DHT22;7010;48.200;16.332;2023-04-07T05:33:50;6.00;80.30
13880;DHT22;7010;48.200;16.332;2023-04-07T05:36:19;6.00;79.30
13880;DHT22;7010;48.200;16.332;2023-04-07T05:38:47;6.00;80.00
13880;DHT22;7010;48.200;16.332;2023-04-07T05:41:15;6.00;79.90
13880;DHT22;7010;48.200;16.332;2023-04-07T05:43:45;6.00;80.40
13880;DHT22;7010;48.200;16.332;2023-04-07T05:46:13;6.10;80.20
13880;DHT22;7010;48.200;16.332;2023-04-07T05:48:42;6.10;79.80
13880;DHT22;7010;48.200;16.332;2023-04-07T05:51:10;6.20;79.70
13880;DHT22;7010;48.200;16.332;2023-04-07T05:53:38;6.20;80.30
13880;DHT22;7010;48.200;16.332;2023-04-07T05:56:09;6.30;79.30
13880;DHT22;7010;48.200;16.332;2023-04-07T05:58:38;6.30;79.00
13880;DHT22;7010;48.200;16.332;2023-04-07T06:01:07;6.30;79.30
13880;DHT22;7010;48.200;16.332;2023-04-07T06:03:36;6.40;79.40
13880;DHT22;7010;48.200;16.332;2023-04-07T06:06:07;6.40;78.50
13880;DHT22;7010;48.200;16.332;2023-04-07T06:08:35;6.50;79.80
13880;DHT22;7010;48.200;16.332;2023-04-07T06:11:03;6.50;79.10
13880;DHT22;7010;48.200;16.332;2023-04-07T06:13:31;6.50;79.10
13880;DHT22;7010;48.200;16.332;2023-04-07T06:16:00;6.50;78.40
13880;DHT22;7010;48.200;16.332;2023-04-07T06:18:29;6.50;78.40
13880;DHT22;7010;48.200;16.332;2023-04-07T06:20:58;6.50;78.90
13880;DHT22;7010;48.200;16.332;2023-04-07T06:23:26;6.40;79.50
13880;DHT22;7010;48.200;16.332;2023-04-07T06:25:54;6.30;78.20
13880;DHT22;7010;48.200;16.332;2023-04-07T06:28:22;6.30;78.90
13880;DHT22;7010;48.200;16.332;2023-04-07T06:30:51;6.40;79.70
13880;DHT22;7010;48.200;16.332;2023-04-07T06:33:19;6.50;79.20
13880;DHT22;7010;48.200;16.332;2023-04-07T06:35:52;6.50;79.50
13880;DHT22;7010;48.200;16.332;2023-04-07T06:38:22;6.50;79.80
13880;DHT22;7010;48.200;16.332;2023-04-07T06:40:50;6.50;80.00
13880;DHT22;7010;48.200;16.332;2023-04-07T06:43:19;6.50;78.90
13880;DHT22;7010;48.200;16.332;2023-04-07T06:45:47;6.50;81.60
13880;DHT22;7010;48.200;16.332;2023-04-07T06:48:16;6.50;79.60
13880;DHT22;7010;48.200;16.332;2023-04-07T06:50:45;6.50;79.70
13880;DHT22;7010;48.200;16.332;2023-04-07T06:53:15;6.50;79.40
13880;DHT22;7010;48.200;16.332;2023-04-07T06:55:44;6.50;79.90
13880;DHT22;7010;48.200;16.332;2023-04-07T06:58:12;6.60;79.70
13880;DHT22;7010;48.200;16.332;2023-04-07T07:00:40;6.60;80.10
13880;DHT22;7010;48.200;16.332;2023-04-07T07:03:08;6.60;80.10
13880;DHT22;7010;48.200;16.332;2023-04-07T07:05:37;6.80;80.20
13880;DHT22;7010;48.200;16.332;2023-04-07T07:08:05;6.90;81.50
13880;DHT22;7010;48.200;16.332;2023-04-07T07:10:35;6.90;79.60
13880;DHT22;7010;48.200;16.332;2023-04-07T07:13:03;7.00;78.80
13880;DHT22;7010;48.200;16.332;2023-04-07T07:15:32;7.00;79.30
13880;DHT22;7010;48.200;16.332;2023-04-07T07:18:00;7.10;79.10
13880;DHT22;7010;48.200;16.332;2023-04-07T07:20:29;7.10;79.50
13880;DHT22;7010;48.200;16.332;2023-04-07T07:22:57;7.20;79.40
13880;DHT22;7010;48.200;16.332;2023-04-07T07:25:25;7.30;80.10
13880;DHT22;7010;48.200;16.332;2023-04-07T07:27:55;7.30;78.40
13880;DHT22;7010;48.200;16.332;2023-04-07T07:30:23;7.40;78.70
13880;DHT22;7010;48.200;16.332;2023-04-07T07:32:52;7.50;78.10
13880;DHT22;7010;48.200;16.332;2023-04-07T07:35:21;7.50;78.30
13880;DHT22;7010;48.200;16.332;2023-04-07T07:37:51;7.70;78.50
13880;DHT22;7010;48.200;16.332;2023-04-07T07:40:19;7.70;78.00
13880;DHT22;7010;48.200;16.332;2023-04-07T07:42:48;7.90;79.10
13880;DHT22;7010;48.200;16.332;2023-04-07T07:45:17;8.00;77.30
13880;DHT22;7010;48.200;16.332;2023-04-07T07:47:46;8.10;77.90
13880;DHT22;7010;48.200;16.332;2023-04-07T07:50:14;8.10;77.30
13880;DHT22;7010;48.200;16.332;2023-04-07T07:52:43;8.10;77.40
13880;DHT22;7010;48.200;16.332;2023-04-07T07:55:11;8.10;78.00
13880;DHT22;7010;48.200;16.332;2023-04-07T07:57:41;8.20;77.50
13880;DHT22;7010;48.200;16.332;2023-04-07T08:00:10;8.20;77.40
13880;DHT22;7010;48.200;16.332;2023-04-07T08:02:40;8.20;77.90
13880;DHT22;7010;48.200;16.332;2023-04-07T08:05:10;8.30;77.50
13880;DHT22;7010;48.200;16.332;2023-04-07T08:07:38;8.30;78.20
13880;DHT22;7010;48.200;16.332;2023-04-07T08:10:09;8.40;77.70
13880;DHT22;7010;48.200;16.332;2023-04-07T08:12:37;8.40;78.30
13880;DHT22;7010;48.200;16.332;2023-04-07T08:15:06;8.40;77.20
13880;DHT22;7010;48.200;16.332;2023-04-07T08:17:36;8.50;77.20
13880;DHT22;7010;48.200;16.332;2023-04-07T08:20:08;8.60;77.20
13880;DHT22;7010;48.200;16.332;2023-04-07T08:22:37;8.50;77.40
13880;DHT22;7010;48.200;16.332;2023-04-07T08:25:06;8.50;77.30
13880;DHT22;7010;48.200;16.332;2023-04-07T08:27:34;8.50;78.30
13880;DHT22;7010;48.200;16.332;2023-04-07T08:30:04;8.60;77.10
13880;DHT22;7010;48.200;16.332;2023-04-07T08:32:34;8.60;77.80
13880;DHT22;7010;48.200;16.332;2023-04-07T08:35:03;8.60;77.20
13880;DHT22;7010;48.200;16.332;2023-04-07T08:37:33;8.60;78.60
13880;DHT22;7010;48.200;16.332;2023-04-07T08:40:03;8.60;77.50
13880;DHT22;7010;48.200;16.332;2023-04-07T08:42:33;8.80;78.60
13880;DHT22;7010;48.200;16.332;2023-04-07T08:45:05;8.80;77.20
13880;DHT22;7010;48.200;16.332;2023-04-07T08:47:35;8.90;77.10
13880;DHT22;7010;48.200;16.332;2023-04-07T08:50:06;9.00;78.30
13880;DHT22;7010;48.200;16.332;2023-04-07T08:52:40;9.00;76.20
13880;DHT22;7010;48.200;16.332;2023-04-07T08:55:09;9.10;76.10
13880;DHT22;7010;48.200;16.332;2023-04-07T08:57:38;9.00;75.70
13880;DHT22;7010;48.200;16.332;2023-04-07T09:00:07;9.00;77.00
13880;DHT22;7010;48.200;16.332;2023-04-07T09:02:38;9.10;76.10
13880;DHT22;7010;48.200;16.332;2023-04-07T09:05:08;9.10;75.50
13880;DHT22;7010;48.200;16.332;2023-04-07T09:07:38;9.20;75.50
13880;DHT22;7010;48.200;16.332;2023-04-07T09:10:09;9.20;75.60
13880;DHT22;7010;48.200;16.332;2023-04-07T09:12:38;9.10;77.30
13880;DHT22;7010;48.200;16.332;2023-04-07T09:15:07;9.10;77.00
13880;DHT22;7010;48.200;16.332;2023-04-07T09:17:35;9.10;75.50
13880;DHT22;7010;48.200;16.332;2023-04-07T09:20:05;9.20;75.60
13880;DHT22;7010;48.200;16.332;2023-04-07T09:22:34;9.30;75.70
13880;DHT22;7010;48.200;16.332;2023-04-07T09:25:12;9.40;75.50
13880;DHT22;7010;48.200;16.332;2023-04-07T09:27:56;9.30;75.10
13880;DHT22;7010;48.200;16.332;2023-04-07T09:30:24;9.40;75.30
13880;DHT22;7010;48.200;16.332;2023-04-07T09:32:53;9.50;75.20
13880;DHT22;7010;48.200;16.332;2023-04-07T09:35:22;9.60;75.00
13880;DHT22;7010;48.200;16.332;2023-04-07T09:38:04;9.60;78.30
13880;DHT22;7010;48.200;16.332;2023-04-07T09:40:35;9.60;76.10
13880;DHT22;7010;48.200;16.332;2023-04-07T09:43:05;9.70;75.30
13880;DHT22;7010;48.200;16.332;2023-04-07T09:45:33;9.70;75.00
13880;DHT22;7010;48.200;16.332;2023-04-07T09:48:04;9.60;74.80
13880;DHT22;7010;48.200;16.332;2023-04-07T09:50:35;9.50;75.50
13880;DHT22;7010;48.200;16.332;2023-04-07T09:53:04;9.60;76.10
13880;DHT22;7010;48.200;16.332;2023-04-07T09:55:34;9.70;76.20
13880;DHT22;7010;48.200;16.332;2023-04-07T09:58:04;9.70;77.80
13880;DHT22;7010;48.200;16.332;2023-04-07T10:00:34;9.60;74.00
13880;DHT22;7010;48.200;16.332;2023-04-07T10:03:03;9.40;74.10
13880;DHT22;7010;48.200;16.332;2023-04-07T10:05:33;9.30;74.30
13880;DHT22;7010;48.200;16.332;2023-04-07T10:08:04;9.30;74.40
13880;DHT22;7010;48.200;16.332;2023-04-07T10:10:35;9.30;74.20
13880;DHT22;7010;48.200;16.332;2023-04-07T10:13:06;9.40;74.10
13880;DHT22;7010;48.200;16.332;2023-04-07T10:15:35;9.40;74.50
13880;DHT22;7010;48.200;16.332;2023-04-07T10:18:06;9.50;74.40
13880;DHT22;7010;48.200;16.332;2023-04-07T10:20:39;9.70;75.40
13880;DHT22;7010;48.200;16.332;2023-04-07T10:23:15;9.80;73.80
13880;DHT22;7010;48.200;16.332;2023-04-07T10:25:49;9.90;74.20
13880;DHT22;7010;48.200;16.332;2023-04-07T10:28:20;9.90;72.90
13880;DHT22;7010;48.200;16.332;2023-04-07T10:30:51;10.00;73.30
13880;DHT22;7010;48.200;16.332;2023-04-07T10:33:44;10.00;72.50
13880;DHT22;7010;48.200;16.332;2023-04-07T10:36:14;10.10;72.30
13880;DHT22;7010;48.200;16.332;2023-04-07T10:39:20;10.20;72.60
13880;DHT22;7010;48.200;16.332;2023-04-07T10:41:51;10.30;71.60
13880;DHT22;7010;48.200;16.332;2023-04-07T10:44:45;10.20;70.10
13880;DHT22;7010;48.200;16.332;2023-04-07T10:47:14;10.30;69.20
13880;DHT22;7010;48.200;16.332;2023-04-07T10:50:16;10.30;71.20
13880;DHT22;7010;48.200;16.332;2023-04-07T10:52:45;10.30;69.80
13880;DHT22;7010;48.200;16.332;2023-04-07T10:55:31;10.20;70.80
13880;DHT22;7010;48.200;16.332;2023-04-07T10:58:21;10.10;70.30
13880;DHT22;7010;48.200;16.332;2023-04-07T11:01:15;9.90;71.80
13880;DHT22;7010;48.200;16.332;2023-04-07T11:04:05;9.80;70.50
13880;DHT22;7010;48.200;16.332;2023-04-07T11:06:35;9.80;71.50
13880;DHT22;7010;48.200;16.332;2023-04-07T11:09:18;9.80;71.50
13880;DHT22;7010;48.200;16.332;2023-04-07T11:11:46;9.80;72.20
13880;DHT22;7010;48.200;16.332;2023-04-07T11:14:25;9.80;73.00
13880;DHT22;7010;48.200;16.332;2023-04-07T11:16:54;9.90;72.30
13880;DHT22;7010;48.200;16.332;2023-04-07T11:19:23;9.90;71.30
13880;DHT22;7010;48.200;16.332;2023-04-07T11:22:13;9.90;70.70
13880;DHT22;7010;48.200;16.332;2023-04-07T11:24:56;9.90;70.80
13880;DHT22;7010;48.200;16.332;2023-04-07T11:27:24;10.00;69.20
13880;DHT22;7010;48.200;16.332;2023-04-07T11:29:55;10.00;70.50
13880;DHT22;7010;48.200;16.332;2023-04-07T11:32:24;10.10;71.10
13880;DHT22;7010;48.200;16.332;2023-04-07T11:34:56;10.20;70.40
13880;DHT22;7010;48.200;16.332;2023-04-07T11:37:25;10.20;71.50
13880;DHT22;7010;48.200;16.332;2023-04-07T11:39:57;10.20;72.40
13880;DHT22;7010;48.200;16.332;2023-04-07T11:42:32;10.30;72.80
13880;DHT22;7010;48.200;16.332;2023-04-07T11:45:02;10.50;73.20
13880;DHT22;7010;48.200;16.332;2023-04-07T11:47:34;10.50;72.80
13880;DHT22;7010;48.200;16.332;2023-04-07T11:50:03;10.70;72.70
13880;DHT22;7010;48.200;16.332;2023-04-07T11:52:40;10.70;72.90
13880;DHT22;7010;48.200;16.332;2023-04-07T11:55:16;10.90;71.50
13880;DHT22;7010;48.200;16.332;2023-04-07T11:57:48;11.10;71.50
13880;DHT22;7010;48.200;16.332;2023-04-07T12:00:19;11.40;71.80
13880;DHT22;7010;48.200;16.332;2023-04-07T12:02:48;11.70;70.00
13880;DHT22;7010;48.200;16.332;2023-04-07T12:05:17;12.00;69.20
13880;DHT22;7010;48.200;16.332;2023-04-07T12:07:52;12.30;69.50
13880;DHT22;7010;48.200;16.332;2023-04-07T12:10:22;12.60;69.20
13880;DHT22;7010;48.200;16.332;2023-04-07T12:12:52;12.60;69.80
13880;DHT22;7010;48.200;16.332;2023-04-07T12:15:23;12.70;69.40
13880;DHT22;7010;48.200;16.332;2023-04-07T12:17:53;12.60;67.00
13880;DHT22;7010;48.200;16.332;2023-04-07T12:20:22;12.60;68.20
13880;DHT22;7010;48.200;16.332;2023-04-07T12:22:50;12.60;68.50
13880;DHT22;7010;48.200;16.332;2023-04-07T12:25:19;12.60;67.90
13880;DHT22;7010;48.200;16.332;2023-04-07T12:27:48;12.70;67.60
13880;DHT22;7010;48.200;16.332;2023-04-07T12:30:16;12.80;70.00
13880;DHT22;7010;48.200;16.332;2023-04-07T12:32:48;12.70;67.90
13880;DHT22;7010;48.200;16.332;2023-04-07T12:35:17;12.60;67.60
13880;DHT22;7010;48.200;16.332;2023-04-07T12:37:45;12.50;67.40
13880;DHT22;7010;48.200;16.332;2023-04-07T12:40:16;12.40;68.50
13880;DHT22;7010;48.200;16.332;2023-04-07T12:42:44;12.30;68.50
13880;DHT22;7010;48.200;16.332;2023-04-07T12:45:12;12.30;66.00
13880;DHT22;7010;48.200;16.332;2023-04-07T12:47:43;12.20;67.00
13880;DHT22;7010;48.200;16.332;2023-04-07T12:50:13;12.30;67.60
13880;DHT22;7010;48.200;16.332;2023-04-07T12:52:42;12.30;67.10
13880;DHT22;7010;48.200;16.332;2023-04-07T12:55:10;12.50;67.00
13880;DHT22;7010;48.200;16.332;2023-04-07T12:57:40;12.80;66.70
13880;DHT22;7010;48.200;16.332;2023-04-07T13:00:09;12.90;65.50
13880;DHT22;7010;48.200;16.332;2023-04-07T13:02:37;12.90;64.80
13880;DHT22;7010;48.200;16.332;2023-04-07T13:05:07;12.90;66.10
13880;DHT22;7010;48.200;16.332;2023-04-07T13:07:37;12.80;65.70
13880;DHT22;7010;48.200;16.332;2023-04-07T13:10:07;12.70;64.70
13880;DHT22;7010;48.200;16.332;2023-04-07T13:12:35;12.60;66.80
13880;DHT22;7010;48.200;16.332;2023-04-07T13:15:06;12.60;67.10
13880;DHT22;7010;48.200;16.332;2023-04-07T13:17:34;12.60;65.00
13880;DHT22;7010;48.200;16.332;2023-04-07T13:20:05;12.50;66.80
13880;DHT22;7010;48.200;16.332;2023-04-07T13:22:34;12.40;67.10
13880;DHT22;7010;48.200;16.332;2023-04-07T13:25:16;12.40;67.20
13880;DHT22;7010;48.200;16.332;2023-04-07T13:27:44;12.20;67.70
13880;DHT22;7010;48.200;16.332;2023-04-07T13:30:13;12.20;69.60
13880;DHT22;7010;48.200;16.332;2023-04-07T13:32:42;12.20;69.20
13880;DHT22;7010;48.200;16.332;2023-04-07T13:35:10;12.00;68.60
13880;DHT22;7010;48.200;16.332;2023-04-07T13:37:38;12.00;70.60
13880;DHT22;7010;48.200;16.332;2023-04-07T13:40:07;12.00;70.30
13880;DHT22;7010;48.200;16.332;2023-04-07T13:42:41;12.00;71.00
13880;DHT22;7010;48.200;16.332;2023-04-07T13:45:10;12.10;71.00
13880;DHT22;7010;48.200;16.332;2023-04-07T13:47:38;12.10;71.90
13880;DHT22;7010;48.200;16.332;2023-04-07T13:50:07;12.20;72.80
13880;DHT22;7010;48.200;16.332;2023-04-07T13:52:36;12.20;72.00
13880;DHT22;7010;48.200;16.332;2023-04-07T13:55:05;12.30;70.90
13880;DHT22;7010;48.200;16.332;2023-04-07T13:57:33;12.40;72.00
13880;DHT22;7010;48.200;16.332;2023-04-07T14:00:04;12.40;70.90
13880;DHT22;7010;48.200;16.332;2023-04-07T14:02:33;12.40;72.90
13880;DHT22;7010;48.200;16.332;2023-04-07T14:05:01;12.30;73.90
13880;DHT22;7010;48.200;16.332;2023-04-07T14:07:29;12.40;75.30
13880;DHT22;7010;48.200;16.332;2023-04-07T14:09:58;12.40;77.10
13880;DHT22;7010;48.200;16.332;2023-04-07T14:12:26;12.50;76.20
13880;DHT22;7010;48.200;16.332;2023-04-07T14:14:54;12.50;77.10
13880;DHT22;7010;48.200;16.332;2023-04-07T14:17:24;12.60;78.20
13880;DHT22;7010;48.200;16.332;2023-04-07T14:19:53;12.60;77.50
13880;DHT22;7010;48.200;16.332;2023-04-07T14:22:21;12.60;77.60
13880;DHT22;7010;48.200;16.332;2023-04-07T14:24:50;12.60;78.20
13880;DHT22;7010;48.200;16.332;2023-04-07T14:27:18;12.70;78.30
13880;DHT22;7010;48.200;16.332;2023-04-07T14:29:48;12.80;76.90
13880;DHT22;7010;48.200;16.332;2023-04-07T14:32:16;12.70;78.30
13880;DHT22;7010;48.200;16.332;2023-04-07T14:34:46;12.60;76.90
13880;DHT22;7010;48.200;16.332;2023-04-07T14:37:14;12.60;77.80
13880;DHT22;7010;48.200;16.332;2023-04-07T14:39:44;12.50;77.50
13880;DHT22;7010;48.200;16.332;2023-04-07T14:42:28;12.40;78.50
13880;DHT22;7010;48.200;16.332;2023-04-07T14:44:57;12.20;78.90
13880;DHT22;7010;48.200;16.332;2023-04-07T14:47:27;12.10;78.60
13880;DHT22;7010;48.200;16.332;2023-04-07T14:49:57;12.00;79.80
13880;DHT22;7010;48.200;16.332;2023-04-07T14:52:26;11.90;80.40
13880;DHT22;7010;48.200;16.332;2023-04-07T14:54:55;11.80;81.20
13880;DHT22;7010;48.200;16.332;2023-04-07T14:57:25;11.70;80.40
13880;DHT22;7010;48.200;16.332;2023-04-07T14:59:54;11.50;79.50
13880;DHT22;7010;48.200;16.332;2023-04-07T15:02:22;11.20;79.70
13880;DHT22;7010;48.200;16.332;2023-04-07T15:04:51;11.10;80.70
13880;DHT22;7010;48.200;16.332;2023-04-07T15:07:21;11.10;81.70
13880;DHT22;7010;48.200;16.332;2023-04-07T15:09:49;11.20;82.30
13880;DHT22;7010;48.200;16.332;2023-04-07T15:12:18;11.20;83.00
13880;DHT22;7010;48.200;16.332;2023-04-07T15:14:50;11.30;83.60
13880;DHT22;7010;48.200;16.332;2023-04-07T15:17:19;11.30;81.60
13880;DHT22;7010;48.200;16.332;2023-04-07T15:19:59;11.20;81.60
13880;DHT22;7010;48.200;16.332;2023-04-07T15:22:29;11.20;81.50
13880;DHT22;7010;48.200;16.332;2023-04-07T15:24:57;11.20;80.40
13880;DHT22;7010;48.200;16.332;2023-04-07T15:27:26;11.20;81.10
13880;DHT22;7010;48.200;16.332;2023-04-07T15:29:54;11.20;81.20
13880;DHT22;7010;48.200;16.332;2023-04-07T15:32:22;11.20;81.20
13880;DHT22;7010;48.200;16.332;2023-04-07T15:34:51;11.20;79.80
13880;DHT22;7010;48.200;16.332;2023-04-07T15:37:19;11.10;80.90
13880;DHT22;7010;48.200;16.332;2023-04-07T15:39:50;11.10;80.70
13880;DHT22;7010;48.200;16.332;2023-04-07T15:42:18;11.10;80.70
13880;DHT22;7010;48.200;16.332;2023-04-07T15:44:46;11.10;81.30
13880;DHT22;7010;48.200;16.332;2023-04-07T15:47:15;11.00;81.90
13880;DHT22;7010;48.200;16.332;2023-04-07T15:49:43;11.00;82.70
13880;DHT22;7010;48.200;16.332;2023-04-07T15:52:12;10.90;83.30
13880;DHT22;7010;48.200;16.332;2023-04-07T15:54:41;10.80;83.50
13880;DHT22;7010;48.200;16.332;2023-04-07T15:57:11;10.80;85.00
13880;DHT22;7010;48.200;16.332;2023-04-07T15:59:42;10.70;87.40
13880;DHT22;7010;48.200;16.332;2023-04-07T16:02:10;10.70;87.20